Lower Presto, Idaho
Current Conditions -  °F | °C
As of 6:53 AM on Friday 19 Dec 2014 (Local Time) from KIDA Reporting Station
Overcast Overcast  
Wind Chill: 26°   Ceiling: 7000
Heat Index: 31°   Visibility: 10mi
Dew Point: 28°   Wind: 5mph
Humidity: 89%   Direction: 210°SSW
Pressure: 30.12"   Gusts: NA
Location:  43.192°N, 111.839°W
Report Text: KIDA 191353Z 21004KT 10SM OVC070 M01/M02 A3012 RMK AO2 SLP228 T10061022
Loading
Personal Weather Stations






























Interactive Weather Map New forecast layout! Learn more

10-Day Weather Forecast

Advertisements
Track Severe Weather on mobile